sensor_id;sensor_type;location;lat;lon;timestamp;temperature;humidity
11009;DHT22;5557;51.670;7.788;2022-10-16T00:01:16;13.30;99.90
11009;DHT22;5557;51.670;7.788;2022-10-16T00:03:44;13.20;99.90
11009;DHT22;5557;51.670;7.788;2022-10-16T00:06:12;13.20;99.90
11009;DHT22;5557;51.670;7.788;2022-10-16T00:08:39;13.20;99.90
11009;DHT22;5557;51.670;7.788;2022-10-16T00:11:12;13.30;99.90
11009;DHT22;5557;51.670;7.788;2022-10-16T00:13:41;13.20;99.90
11009;DHT22;5557;51.670;7.788;2022-10-16T00:16:12;13.20;99.90
11009;DHT22;5557;51.670;7.788;2022-10-16T00:18:39;13.20;99.90
11009;DHT22;5557;51.670;7.788;2022-10-16T00:21:14;13.20;99.90
11009;DHT22;5557;51.670;7.788;2022-10-16T00:23:41;13.10;99.90
11009;DHT22;5557;51.670;7.788;2022-10-16T00:26:12;13.10;99.90
11009;DHT22;5557;51.670;7.788;2022-10-16T00:28:40;13.10;99.90
11009;DHT22;5557;51.670;7.788;2022-10-16T00:33:39;13.00;99.90
11009;DHT22;5557;51.670;7.788;2022-10-16T00:36:08;13.10;99.90
11009;DHT22;5557;51.670;7.788;2022-10-16T00:38:36;13.10;99.90
11009;DHT22;5557;51.670;7.788;2022-10-16T00:41:06;13.00;99.90
11009;DHT22;5557;51.670;7.788;2022-10-16T00:43:55;13.00;99.90
11009;DHT22;5557;51.670;7.788;2022-10-16T00:49:22;13.00;99.90
11009;DHT22;5557;51.670;7.788;2022-10-16T00:51:51;13.00;99.90
11009;DHT22;5557;51.670;7.788;2022-10-16T00:54:23;13.00;99.90
11009;DHT22;5557;51.670;7.788;2022-10-16T00:56:51;13.00;99.90
11009;DHT22;5557;51.670;7.788;2022-10-16T00:59:27;13.00;99.90
11009;DHT22;5557;51.670;7.788;2022-10-16T01:01:55;13.00;99.90
11009;DHT22;5557;51.670;7.788;2022-10-16T01:04:23;13.00;99.90
11009;DHT22;5557;51.670;7.788;2022-10-16T01:07:33;12.90;99.90
11009;DHT22;5557;51.670;7.788;2022-10-16T01:10:40;12.90;99.90
11009;DHT22;5557;51.670;7.788;2022-10-16T01:13:31;12.80;99.90
11009;DHT22;5557;51.670;7.788;2022-10-16T01:16:07;12.80;99.90
11009;DHT22;5557;51.670;7.788;2022-10-16T01:18:48;12.80;99.90
11009;DHT22;5557;51.670;7.788;2022-10-16T01:21:24;12.80;99.90
11009;DHT22;5557;51.670;7.788;2022-10-16T01:24:17;12.70;99.90
11009;DHT22;5557;51.670;7.788;2022-10-16T01:27:13;12.70;99.90
11009;DHT22;5557;51.670;7.788;2022-10-16T01:30:13;12.80;99.90
11009;DHT22;5557;51.670;7.788;2022-10-16T01:33:03;12.90;99.90
11009;DHT22;5557;51.670;7.788;2022-10-16T01:35:39;13.00;99.90
11009;DHT22;5557;51.670;7.788;2022-10-16T01:38:14;13.00;99.90
11009;DHT22;5557;51.670;7.788;2022-10-16T01:40:47;13.00;99.90
11009;DHT22;5557;51.670;7.788;2022-10-16T01:43:24;13.00;99.90
11009;DHT22;5557;51.670;7.788;2022-10-16T01:45:53;12.90;99.90
11009;DHT22;5557;51.670;7.788;2022-10-16T01:48:22;12.80;99.90
11009;DHT22;5557;51.670;7.788;2022-10-16T01:51:12;12.80;99.90
11009;DHT22;5557;51.670;7.788;2022-10-16T01:53:42;12.70;99.90
11009;DHT22;5557;51.670;7.788;2022-10-16T01:56:12;12.70;99.90
11009;DHT22;5557;51.670;7.788;2022-10-16T01:58:51;12.60;99.90
11009;DHT22;5557;51.670;7.788;2022-10-16T02:01:23;12.60;99.90
11009;DHT22;5557;51.670;7.788;2022-10-16T02:03:53;12.60;99.90
11009;DHT22;5557;51.670;7.788;2022-10-16T02:06:21;12.50;99.90
11009;DHT22;5557;51.670;7.788;2022-10-16T02:08:50;12.50;99.90
11009;DHT22;5557;51.670;7.788;2022-10-16T02:11:17;12.60;99.90
11009;DHT22;5557;51.670;7.788;2022-10-16T02:13:48;12.60;99.90
11009;DHT22;5557;51.670;7.788;2022-10-16T02:16:16;12.60;99.90
11009;DHT22;5557;51.670;7.788;2022-10-16T02:18:44;12.60;99.90
11009;DHT22;5557;51.670;7.788;2022-10-16T02:21:23;12.60;99.90
11009;DHT22;5557;51.670;7.788;2022-10-16T02:30:41;12.70;99.90
11009;DHT22;5557;51.670;7.788;2022-10-16T02:33:11;12.60;99.90
11009;DHT22;5557;51.670;7.788;2022-10-16T02:35:41;12.60;99.90
11009;DHT22;5557;51.670;7.788;2022-10-16T02:38:10;12.60;99.90
11009;DHT22;5557;51.670;7.788;2022-10-16T02:40:38;12.60;99.90
11009;DHT22;5557;51.670;7.788;2022-10-16T02:43:06;12.60;99.90
11009;DHT22;5557;51.670;7.788;2022-10-16T02:45:33;12.60;99.90
11009;DHT22;5557;51.670;7.788;2022-10-16T02:48:00;12.60;99.90
11009;DHT22;5557;51.670;7.788;2022-10-16T02:50:27;12.60;99.90
11009;DHT22;5557;51.670;7.788;2022-10-16T02:52:54;12.60;99.90
11009;DHT22;5557;51.670;7.788;2022-10-16T02:55:21;12.60;99.90
11009;DHT22;5557;51.670;7.788;2022-10-16T02:57:48;12.70;99.90
11009;DHT22;5557;51.670;7.788;2022-10-16T03:00:16;12.80;99.90
11009;DHT22;5557;51.670;7.788;2022-10-16T03:02:44;12.90;99.90
11009;DHT22;5557;51.670;7.788;2022-10-16T03:05:11;12.90;99.90
11009;DHT22;5557;51.670;7.788;2022-10-16T03:07:39;12.90;99.90
11009;DHT22;5557;51.670;7.788;2022-10-16T03:10:07;12.90;99.90
11009;DHT22;5557;51.670;7.788;2022-10-16T03:12:34;13.00;99.90
11009;DHT22;5557;51.670;7.788;2022-10-16T03:15:01;13.00;99.90
11009;DHT22;5557;51.670;7.788;2022-10-16T03:17:28;13.10;99.90
11009;DHT22;5557;51.670;7.788;2022-10-16T03:19:55;13.10;99.90
11009;DHT22;5557;51.670;7.788;2022-10-16T03:22:22;13.20;99.90
11009;DHT22;5557;51.670;7.788;2022-10-16T03:24:49;13.20;99.90
11009;DHT22;5557;51.670;7.788;2022-10-16T03:27:17;13.20;99.90
11009;DHT22;5557;51.670;7.788;2022-10-16T03:29:44;13.20;99.90
11009;DHT22;5557;51.670;7.788;2022-10-16T03:32:11;13.30;99.90
11009;DHT22;5557;51.670;7.788;2022-10-16T03:34:37;13.30;99.90
11009;DHT22;5557;51.670;7.788;2022-10-16T03:37:04;13.30;99.90
11009;DHT22;5557;51.670;7.788;2022-10-16T03:39:32;13.40;99.90
11009;DHT22;5557;51.670;7.788;2022-10-16T03:41:59;13.40;99.90
11009;DHT22;5557;51.670;7.788;2022-10-16T03:44:25;13.50;99.90
11009;DHT22;5557;51.670;7.788;2022-10-16T03:46:52;13.50;99.90
11009;DHT22;5557;51.670;7.788;2022-10-16T03:49:19;13.60;99.90
11009;DHT22;5557;51.670;7.788;2022-10-16T03:51:46;13.60;99.90
11009;DHT22;5557;51.670;7.788;2022-10-16T03:54:13;13.60;99.90
11009;DHT22;5557;51.670;7.788;2022-10-16T03:56:40;13.60;99.90
11009;DHT22;5557;51.670;7.788;2022-10-16T03:59:07;13.60;99.90
11009;DHT22;5557;51.670;7.788;2022-10-16T04:01:34;13.60;99.90
11009;DHT22;5557;51.670;7.788;2022-10-16T04:04:01;13.60;99.90
11009;DHT22;5557;51.670;7.788;2022-10-16T04:06:28;13.60;99.90
11009;DHT22;5557;51.670;7.788;2022-10-16T04:08:54;13.60;99.90
11009;DHT22;5557;51.670;7.788;2022-10-16T04:11:21;13.50;99.90
11009;DHT22;5557;51.670;7.788;2022-10-16T04:13:48;13.50;99.90
11009;DHT22;5557;51.670;7.788;2022-10-16T04:16:15;13.50;99.90
11009;DHT22;5557;51.670;7.788;2022-10-16T04:18:42;13.40;99.90
11009;DHT22;5557;51.670;7.788;2022-10-16T04:21:09;13.30;99.90
11009;DHT22;5557;51.670;7.788;2022-10-16T04:23:36;13.30;99.90
11009;DHT22;5557;51.670;7.788;2022-10-16T04:26:03;13.20;99.90
11009;DHT22;5557;51.670;7.788;2022-10-16T04:28:30;13.10;99.90
11009;DHT22;5557;51.670;7.788;2022-10-16T04:30:57;13.00;99.90
11009;DHT22;5557;51.670;7.788;2022-10-16T04:33:24;13.00;99.90
11009;DHT22;5557;51.670;7.788;2022-10-16T04:35:58;12.90;99.90
11009;DHT22;5557;51.670;7.788;2022-10-16T04:38:26;12.90;99.90
11009;DHT22;5557;51.670;7.788;2022-10-16T04:40:53;12.80;99.90
11009;DHT22;5557;51.670;7.788;2022-10-16T04:43:20;12.80;99.90
11009;DHT22;5557;51.670;7.788;2022-10-16T04:45:47;12.70;99.90
11009;DHT22;5557;51.670;7.788;2022-10-16T04:48:14;12.70;99.90
11009;DHT22;5557;51.670;7.788;2022-10-16T04:50:41;12.70;99.90
11009;DHT22;5557;51.670;7.788;2022-10-16T04:53:08;12.70;99.90
11009;DHT22;5557;51.670;7.788;2022-10-16T04:55:35;12.70;99.90
11009;DHT22;5557;51.670;7.788;2022-10-16T04:58:03;12.70;99.90
11009;DHT22;5557;51.670;7.788;2022-10-16T05:00:30;12.60;99.90
11009;DHT22;5557;51.670;7.788;2022-10-16T05:02:57;12.70;99.90
11009;DHT22;5557;51.670;7.788;2022-10-16T05:05:26;12.70;99.90
11009;DHT22;5557;51.670;7.788;2022-10-16T05:07:53;12.60;99.90
11009;DHT22;5557;51.670;7.788;2022-10-16T05:10:20;12.60;99.90
11009;DHT22;5557;51.670;7.788;2022-10-16T05:12:47;12.60;99.90
11009;DHT22;5557;51.670;7.788;2022-10-16T05:15:14;12.60;99.90
11009;DHT22;5557;51.670;7.788;2022-10-16T05:17:41;12.60;99.90
11009;DHT22;5557;51.670;7.788;2022-10-16T05:20:11;12.50;99.90
11009;DHT22;5557;51.670;7.788;2022-10-16T05:22:38;12.50;99.90
11009;DHT22;5557;51.670;7.788;2022-10-16T05:25:05;12.50;99.90
11009;DHT22;5557;51.670;7.788;2022-10-16T05:27:32;12.40;99.90
11009;DHT22;5557;51.670;7.788;2022-10-16T05:29:59;12.40;99.90
11009;DHT22;5557;51.670;7.788;2022-10-16T05:32:26;12.30;99.90
11009;DHT22;5557;51.670;7.788;2022-10-16T05:34:53;12.30;99.90
11009;DHT22;5557;51.670;7.788;2022-10-16T05:37:20;12.40;99.90
11009;DHT22;5557;51.670;7.788;2022-10-16T05:39:47;12.40;99.90
11009;DHT22;5557;51.670;7.788;2022-10-16T05:42:14;12.50;99.90
11009;DHT22;5557;51.670;7.788;2022-10-16T05:44:41;12.50;99.90
11009;DHT22;5557;51.670;7.788;2022-10-16T05:47:08;12.50;99.90
11009;DHT22;5557;51.670;7.788;2022-10-16T05:49:35;12.60;99.90
11009;DHT22;5557;51.670;7.788;2022-10-16T05:52:06;12.60;99.90
11009;DHT22;5557;51.670;7.788;2022-10-16T05:54:33;12.60;99.90
11009;DHT22;5557;51.670;7.788;2022-10-16T05:57:00;12.60;99.90
11009;DHT22;5557;51.670;7.788;2022-10-16T05:59:28;12.60;99.90
11009;DHT22;5557;51.670;7.788;2022-10-16T06:01:55;12.60;99.90
11009;DHT22;5557;51.670;7.788;2022-10-16T06:04:22;12.60;99.90
11009;DHT22;5557;51.670;7.788;2022-10-16T06:06:49;12.70;99.90
11009;DHT22;5557;51.670;7.788;2022-10-16T06:09:16;12.70;99.90
11009;DHT22;5557;51.670;7.788;2022-10-16T06:11:43;12.70;99.90
11009;DHT22;5557;51.670;7.788;2022-10-16T06:14:10;12.80;99.90
11009;DHT22;5557;51.670;7.788;2022-10-16T06:16:38;12.90;99.90
11009;DHT22;5557;51.670;7.788;2022-10-16T06:19:05;12.90;99.90
11009;DHT22;5557;51.670;7.788;2022-10-16T06:21:37;12.90;99.90
11009;DHT22;5557;51.670;7.788;2022-10-16T06:24:04;13.00;99.90
11009;DHT22;5557;51.670;7.788;2022-10-16T06:26:31;13.10;99.90
11009;DHT22;5557;51.670;7.788;2022-10-16T06:28:59;13.10;99.90
11009;DHT22;5557;51.670;7.788;2022-10-16T06:31:27;13.20;99.90
11009;DHT22;5557;51.670;7.788;2022-10-16T06:33:58;13.30;99.90
11009;DHT22;5557;51.670;7.788;2022-10-16T06:36:25;13.50;99.90
11009;DHT22;5557;51.670;7.788;2022-10-16T06:38:52;14.00;99.90
11009;DHT22;5557;51.670;7.788;2022-10-16T06:41:21;14.20;99.30
11009;DHT22;5557;51.670;7.788;2022-10-16T06:43:48;14.20;97.50
11009;DHT22;5557;51.670;7.788;2022-10-16T06:46:18;14.00;98.80
11009;DHT22;5557;51.670;7.788;2022-10-16T06:48:45;14.00;99.90
11009;DHT22;5557;51.670;7.788;2022-10-16T06:51:15;14.40;98.70
11009;DHT22;5557;51.670;7.788;2022-10-16T06:53:53;14.60;95.60
11009;DHT22;5557;51.670;7.788;2022-10-16T06:56:32;15.00;92.00
11009;DHT22;5557;51.670;7.788;2022-10-16T06:59:00;15.50;85.60
11009;DHT22;5557;51.670;7.788;2022-10-16T07:01:28;15.50;80.70
11009;DHT22;5557;51.670;7.788;2022-10-16T07:03:55;15.50;79.00
11009;DHT22;5557;51.670;7.788;2022-10-16T07:06:24;15.30;83.80
11009;DHT22;5557;51.670;7.788;2022-10-16T07:08:52;15.00;88.30
11009;DHT22;5557;51.670;7.788;2022-10-16T07:11:21;14.80;91.70
11009;DHT22;5557;51.670;7.788;2022-10-16T07:13:52;14.60;93.70
11009;DHT22;5557;51.670;7.788;2022-10-16T07:16:27;14.50;95.20
11009;DHT22;5557;51.670;7.788;2022-10-16T07:18:55;14.50;95.60
11009;DHT22;5557;51.670;7.788;2022-10-16T07:21:29;14.60;96.40
11009;DHT22;5557;51.670;7.788;2022-10-16T07:23:59;14.80;95.10
11009;DHT22;5557;51.670;7.788;2022-10-16T07:26:27;14.90;93.40
11009;DHT22;5557;51.670;7.788;2022-10-16T07:28:55;14.90;93.40
11009;DHT22;5557;51.670;7.788;2022-10-16T07:31:23;15.10;94.70
11009;DHT22;5557;51.670;7.788;2022-10-16T07:33:51;15.90;85.60
11009;DHT22;5557;51.670;7.788;2022-10-16T07:36:19;16.60;67.20
11009;DHT22;5557;51.670;7.788;2022-10-16T07:38:47;17.00;59.80
11009;DHT22;5557;51.670;7.788;2022-10-16T07:41:16;16.90;59.20
11009;DHT22;5557;51.670;7.788;2022-10-16T07:43:51;16.40;66.30
11009;DHT22;5557;51.670;7.788;2022-10-16T07:46:19;15.90;74.20
11009;DHT22;5557;51.670;7.788;2022-10-16T07:48:47;15.50;84.40
11009;DHT22;5557;51.670;7.788;2022-10-16T07:51:16;15.20;89.60
11009;DHT22;5557;51.670;7.788;2022-10-16T07:53:44;15.00;92.30
11009;DHT22;5557;51.670;7.788;2022-10-16T07:56:11;15.10;92.90
11009;DHT22;5557;51.670;7.788;2022-10-16T07:58:38;15.40;88.50
11009;DHT22;5557;51.670;7.788;2022-10-16T08:01:08;15.90;83.80
11009;DHT22;5557;51.670;7.788;2022-10-16T08:03:36;16.30;71.70
11009;DHT22;5557;51.670;7.788;2022-10-16T08:06:03;16.20;71.80
11009;DHT22;5557;51.670;7.788;2022-10-16T08:08:31;16.70;66.70
11009;DHT22;5557;51.670;7.788;2022-10-16T08:10:58;17.00;60.50
11009;DHT22;5557;51.670;7.788;2022-10-16T08:13:25;16.90;59.20
11009;DHT22;5557;51.670;7.788;2022-10-16T08:15:54;16.60;70.60
11009;DHT22;5557;51.670;7.788;2022-10-16T08:18:21;17.30;58.50
11009;DHT22;5557;51.670;7.788;2022-10-16T08:20:55;18.30;38.60
11009;DHT22;5557;51.670;7.788;2022-10-16T08:23:24;19.00;27.80
11009;DHT22;5557;51.670;7.788;2022-10-16T08:26:01;19.90;19.20
11009;DHT22;5557;51.670;7.788;2022-10-16T08:28:28;20.50;9.70
11009;DHT22;5557;51.670;7.788;2022-10-16T08:30:55;20.80;2.50
11009;DHT22;5557;51.670;7.788;2022-10-16T08:33:23;20.90;4.20
11009;DHT22;5557;51.670;7.788;2022-10-16T08:35:52;20.90;1.00
11009;DHT22;5557;51.670;7.788;2022-10-16T08:38:20;21.20;1.00
11009;DHT22;5557;51.670;7.788;2022-10-16T08:40:47;21.10;1.00
11009;DHT22;5557;51.670;7.788;2022-10-16T08:46:55;21.30;1.00
11009;DHT22;5557;51.670;7.788;2022-10-16T08:49:27;21.50;1.00
11009;DHT22;5557;51.670;7.788;2022-10-16T08:51:56;21.60;1.00
11009;DHT22;5557;51.670;7.788;2022-10-16T08:54:34;21.20;1.00
11009;DHT22;5557;51.670;7.788;2022-10-16T08:57:21;21.30;1.00
11009;DHT22;5557;51.670;7.788;2022-10-16T08:59:52;21.60;1.00
11009;DHT22;5557;51.670;7.788;2022-10-16T09:02:27;21.50;1.00
11009;DHT22;5557;51.670;7.788;2022-10-16T09:07:49;20.90;1.00
11009;DHT22;5557;51.670;7.788;2022-10-16T09:10:46;21.00;1.00
11009;DHT22;5557;51.670;7.788;2022-10-16T09:16:36;20.60;1.00
11009;DHT22;5557;51.670;7.788;2022-10-16T09:19:31;20.70;1.00
11009;DHT22;5557;51.670;7.788;2022-10-16T09:22:14;21.00;1.00
11009;DHT22;5557;51.670;7.788;2022-10-16T09:24:42;21.10;1.00
11009;DHT22;5557;51.670;7.788;2022-10-16T09:27:13;21.20;1.00
11009;DHT22;5557;51.670;7.788;2022-10-16T09:29:41;21.10;1.00
11009;DHT22;5557;51.670;7.788;2022-10-16T09:32:14;20.90;1.00
11009;DHT22;5557;51.670;7.788;2022-10-16T09:34:50;21.00;1.00
11009;DHT22;5557;51.670;7.788;2022-10-16T09:37:22;21.10;1.00
11009;DHT22;5557;51.670;7.788;2022-10-16T09:39:53;21.30;1.00
11009;DHT22;5557;51.670;7.788;2022-10-16T09:42:25;21.40;1.00
11009;DHT22;5557;51.670;7.788;2022-10-16T09:44:54;21.00;1.00
11009;DHT22;5557;51.670;7.788;2022-10-16T09:47:23;20.50;1.00
11009;DHT22;5557;51.670;7.788;2022-10-16T09:49:59;20.30;1.00
11009;DHT22;5557;51.670;7.788;2022-10-16T09:52:29;20.40;1.00
11009;DHT22;5557;51.670;7.788;2022-10-16T09:55:14;20.30;1.00
11009;DHT22;5557;51.670;7.788;2022-10-16T09:57:54;20.40;1.00
11009;DHT22;5557;51.670;7.788;2022-10-16T10:00:23;20.50;1.00
11009;DHT22;5557;51.670;7.788;2022-10-16T10:02:51;20.50;1.00
11009;DHT22;5557;51.670;7.788;2022-10-16T10:05:27;20.60;1.00
11009;DHT22;5557;51.670;7.788;2022-10-16T10:08:02;20.60;1.00
11009;DHT22;5557;51.670;7.788;2022-10-16T10:10:37;20.50;1.00
11009;DHT22;5557;51.670;7.788;2022-10-16T10:13:20;20.40;1.00
11009;DHT22;5557;51.670;7.788;2022-10-16T10:15:48;20.60;1.00
11009;DHT22;5557;51.670;7.788;2022-10-16T10:18:20;20.60;1.00
11009;DHT22;5557;51.670;7.788;2022-10-16T10:21:02;20.20;1.00
11009;DHT22;5557;51.670;7.788;2022-10-16T10:23:30;19.90;1.00
11009;DHT22;5557;51.670;7.788;2022-10-16T10:26:24;19.40;1.00
11009;DHT22;5557;51.670;7.788;2022-10-16T10:35:04;19.30;1.00
11009;DHT22;5557;51.670;7.788;2022-10-16T10:38:07;19.30;1.00
11009;DHT22;5557;51.670;7.788;2022-10-16T10:40:54;19.50;1.00
11009;DHT22;5557;51.670;7.788;2022-10-16T10:46:56;19.70;1.00
11009;DHT22;5557;51.670;7.788;2022-10-16T10:50:57;19.90;1.00
11009;DHT22;5557;51.670;7.788;2022-10-16T10:57:09;19.60;1.00
11009;DHT22;5557;51.670;7.788;2022-10-16T11:02:04;19.50;1.00
11009;DHT22;5557;51.670;7.788;2022-10-16T11:05:07;19.40;1.00
11009;DHT22;5557;51.670;7.788;2022-10-16T11:07:59;19.50;1.00
11009;DHT22;5557;51.670;7.788;2022-10-16T11:13:39;20.00;1.00
11009;DHT22;5557;51.670;7.788;2022-10-16T11:16:30;20.10;1.00
11009;DHT22;5557;51.670;7.788;2022-10-16T11:19:12;20.20;1.00
11009;DHT22;5557;51.670;7.788;2022-10-16T11:21:48;20.50;1.00
11009;DHT22;5557;51.670;7.788;2022-10-16T11:24:46;20.80;1.00
11009;DHT22;5557;51.670;7.788;2022-10-16T11:27:19;21.00;1.00
11009;DHT22;5557;51.670;7.788;2022-10-16T11:30:02;21.20;1.00
11009;DHT22;5557;51.670;7.788;2022-10-16T11:32:45;20.90;1.00
11009;DHT22;5557;51.670;7.788;2022-10-16T11:35:19;20.90;1.00
11009;DHT22;5557;51.670;7.788;2022-10-16T11:37:50;20.50;1.00
11009;DHT22;5557;51.670;7.788;2022-10-16T11:40:33;20.10;1.00
11009;DHT22;5557;51.670;7.788;2022-10-16T11:43:13;20.00;1.00
11009;DHT22;5557;51.670;7.788;2022-10-16T11:45:49;19.90;1.00
11009;DHT22;5557;51.670;7.788;2022-10-16T11:51:40;19.90;1.00
11009;DHT22;5557;51.670;7.788;2022-10-16T11:54:28;19.90;1.00
11009;DHT22;5557;51.670;7.788;2022-10-16T11:57:02;19.70;1.00
11009;DHT22;5557;51.670;7.788;2022-10-16T11:59:46;19.70;1.00
11009;DHT22;5557;51.670;7.788;2022-10-16T12:02:39;19.50;1.00
11009;DHT22;5557;51.670;7.788;2022-10-16T12:05:20;19.50;1.00
11009;DHT22;5557;51.670;7.788;2022-10-16T12:08:13;19.40;1.00
11009;DHT22;5557;51.670;7.788;2022-10-16T12:10:44;19.30;1.00
11009;DHT22;5557;51.670;7.788;2022-10-16T12:13:50;19.20;1.00
11009;DHT22;5557;51.670;7.788;2022-10-16T12:16:21;19.50;1.00
11009;DHT22;5557;51.670;7.788;2022-10-16T12:18:49;19.90;1.00
11009;DHT22;5557;51.670;7.788;2022-10-16T12:21:17;20.10;1.00
11009;DHT22;5557;51.670;7.788;2022-10-16T12:23:56;20.30;1.00
11009;DHT22;5557;51.670;7.788;2022-10-16T12:26:38;20.40;1.00
11009;DHT22;5557;51.670;7.788;2022-10-16T12:29:33;20.30;1.00
11009;DHT22;5557;51.670;7.788;2022-10-16T12:32:03;20.00;1.00
11009;DHT22;5557;51.670;7.788;2022-10-16T12:34:42;19.90;1.00
11009;DHT22;5557;51.670;7.788;2022-10-16T12:37:24;19.80;1.00
11009;DHT22;5557;51.670;7.788;2022-10-16T12:39:54;19.80;1.00
11009;DHT22;5557;51.670;7.788;2022-10-16T12:42:33;19.90;1.00
11009;DHT22;5557;51.670;7.788;2022-10-16T12:45:01;19.90;1.00
11009;DHT22;5557;51.670;7.788;2022-10-16T12:47:47;19.80;1.00
11009;DHT22;5557;51.670;7.788;2022-10-16T12:50:44;19.90;1.00
11009;DHT22;5557;51.670;7.788;2022-10-16T12:53:22;19.90;1.00
11009;DHT22;5557;51.670;7.788;2022-10-16T12:59:56;19.80;1.00
11009;DHT22;5557;51.670;7.788;2022-10-16T13:08:25;19.60;1.00
11009;DHT22;5557;51.670;7.788;2022-10-16T13:11:29;19.80;1.00
11009;DHT22;5557;51.670;7.788;2022-10-16T13:17:40;19.80;1.00
11009;DHT22;5557;51.670;7.788;2022-10-16T13:20:54;19.60;1.00
11009;DHT22;5557;51.670;7.788;2022-10-16T13:26:46;19.50;1.00
11009;DHT22;5557;51.670;7.788;2022-10-16T13:29:16;19.70;1.00
11009;DHT22;5557;51.670;7.788;2022-10-16T13:31:44;19.80;1.00
11009;DHT22;5557;51.670;7.788;2022-10-16T13:34:18;20.70;1.00
11009;DHT22;5557;51.670;7.788;2022-10-16T13:36:48;22.00;1.00
11009;DHT22;5557;51.670;7.788;2022-10-16T13:39:26;22.80;1.00
11009;DHT22;5557;51.670;7.788;2022-10-16T13:42:11;22.70;1.00
11009;DHT22;5557;51.670;7.788;2022-10-16T13:44:47;22.90;1.00
11009;DHT22;5557;51.670;7.788;2022-10-16T13:47:23;23.30;1.00
11009;DHT22;5557;51.670;7.788;2022-10-16T13:50:09;23.70;1.00
11009;DHT22;5557;51.670;7.788;2022-10-16T13:52:38;23.80;1.00
11009;DHT22;5557;51.670;7.788;2022-10-16T13:55:11;24.10;1.00
11009;DHT22;5557;51.670;7.788;2022-10-16T13:57:39;24.10;1.00
11009;DHT22;5557;51.670;7.788;2022-10-16T14:00:24;24.20;1.00
11009;DHT22;5557;51.670;7.788;2022-10-16T14:03:03;23.80;1.00
11009;DHT22;5557;51.670;7.788;2022-10-16T14:05:31;22.50;1.00
11009;DHT22;5557;51.670;7.788;2022-10-16T14:07:59;21.70;1.00
11009;DHT22;5557;51.670;7.788;2022-10-16T14:13:01;20.70;1.00
11009;DHT22;5557;51.670;7.788;2022-10-16T14:15:30;21.20;1.00
11009;DHT22;5557;51.670;7.788;2022-10-16T14:17:58;22.20;1.00
11009;DHT22;5557;51.670;7.788;2022-10-16T14:20:31;22.80;1.00
11009;DHT22;5557;51.670;7.788;2022-10-16T14:23:42;22.20;1.00
11009;DHT22;5557;51.670;7.788;2022-10-16T14:25:50;21.40;1.00
11009;DHT22;5557;51.670;7.788;2022-10-16T14:28:20;20.70;1.00
11009;DHT22;5557;51.670;7.788;2022-10-16T14:30:56;20.40;1.00
11009;DHT22;5557;51.670;7.788;2022-10-16T14:33:34;20.40;1.00
11009;DHT22;5557;51.670;7.788;2022-10-16T14:36:19;20.30;1.00
11009;DHT22;5557;51.670;7.788;2022-10-16T14:39:17;20.20;1.00
11009;DHT22;5557;51.670;7.788;2022-10-16T14:41:48;20.10;1.00
11009;DHT22;5557;51.670;7.788;2022-10-16T14:44:17;20.00;1.00
11009;DHT22;5557;51.670;7.788;2022-10-16T14:46:45;19.90;1.00
11009;DHT22;5557;51.670;7.788;2022-10-16T14:49:17;19.90;1.00
11009;DHT22;5557;51.670;7.788;2022-10-16T14:51:46;19.80;1.00
11009;DHT22;5557;51.670;7.788;2022-10-16T14:54:14;19.60;1.00
11009;DHT22;5557;51.670;7.788;2022-10-16T14:56:48;19.40;1.00
11009;DHT22;5557;51.670;7.788;2022-10-16T15:01:46;19.00;1.00
11009;DHT22;5557;51.670;7.788;2022-10-16T15:04:14;18.80;1.00
11009;DHT22;5557;51.670;7.788;2022-10-16T15:06:42;18.60;1.00
11009;DHT22;5557;51.670;7.788;2022-10-16T15:09:09;18.50;1.00
11009;DHT22;5557;51.670;7.788;2022-10-16T15:11:36;18.40;1.00
11009;DHT22;5557;51.670;7.788;2022-10-16T15:14:03;18.30;1.00
11009;DHT22;5557;51.670;7.788;2022-10-16T15:16:31;18.30;1.00
11009;DHT22;5557;51.670;7.788;2022-10-16T15:18:58;18.40;1.00
11009;DHT22;5557;51.670;7.788;2022-10-16T15:21:27;18.40;1.00
11009;DHT22;5557;51.670;7.788;2022-10-16T15:23:55;18.50;1.00
11009;DHT22;5557;51.670;7.788;2022-10-16T15:26:27;18.60;1.00
11009;DHT22;5557;51.670;7.788;2022-10-16T15:28:57;18.70;1.00
11009;DHT22;5557;51.670;7.788;2022-10-16T15:31:24;18.80;1.00
11009;DHT22;5557;51.670;7.788;2022-10-16T15:33:53;18.80;1.00
11009;DHT22;5557;51.670;7.788;2022-10-16T15:36:30;18.80;1.00
11009;DHT22;5557;51.670;7.788;2022-10-16T15:38:57;18.70;1.00
11009;DHT22;5557;51.670;7.788;2022-10-16T15:41:24;18.50;1.00
11009;DHT22;5557;51.670;7.788;2022-10-16T15:43:52;18.40;1.00
11009;DHT22;5557;51.670;7.788;2022-10-16T15:46:20;18.20;1.00
11009;DHT22;5557;51.670;7.788;2022-10-16T15:48:49;18.10;1.00
11009;DHT22;5557;51.670;7.788;2022-10-16T15:51:18;18.00;1.00
11009;DHT22;5557;51.670;7.788;2022-10-16T15:53:45;17.90;1.00
11009;DHT22;5557;51.670;7.788;2022-10-16T15:56:13;17.80;1.00
11009;DHT22;5557;51.670;7.788;2022-10-16T15:58:40;17.70;1.00
11009;DHT22;5557;51.670;7.788;2022-10-16T16:01:08;17.70;1.00
11009;DHT22;5557;51.670;7.788;2022-10-16T16:03:38;17.70;1.00
11009;DHT22;5557;51.670;7.788;2022-10-16T16:06:09;17.70;1.00
11009;DHT22;5557;51.670;7.788;2022-10-16T16:08:37;17.70;1.00
11009;DHT22;5557;51.670;7.788;2022-10-16T16:11:09;17.70;1.00
11009;DHT22;5557;51.670;7.788;2022-10-16T16:13:37;17.60;1.00
11009;DHT22;5557;51.670;7.788;2022-10-16T16:16:06;17.60;1.90
11009;DHT22;5557;51.670;7.788;2022-10-16T16:18:34;17.60;1.80
11009;DHT22;5557;51.670;7.788;2022-10-16T16:21:02;17.50;2.60
11009;DHT22;5557;51.670;7.788;2022-10-16T16:23:29;17.50;3.00
11009;DHT22;5557;51.670;7.788;2022-10-16T16:26:14;17.50;2.90
11009;DHT22;5557;51.670;7.788;2022-10-16T16:28:43;17.50;3.80
11009;DHT22;5557;51.670;7.788;2022-10-16T16:31:10;17.40;3.80
11009;DHT22;5557;51.670;7.788;2022-10-16T16:33:37;17.40;5.20
11009;DHT22;5557;51.670;7.788;2022-10-16T16:36:06;17.50;5.40
11009;DHT22;5557;51.670;7.788;2022-10-16T16:38:40;17.40;5.30
11009;DHT22;5557;51.670;7.788;2022-10-16T16:41:15;17.40;5.20
11009;DHT22;5557;51.670;7.788;2022-10-16T16:43:43;17.40;6.40
11009;DHT22;5557;51.670;7.788;2022-10-16T16:46:11;17.40;7.20
11009;DHT22;5557;51.670;7.788;2022-10-16T16:48:38;17.30;8.90
11009;DHT22;5557;51.670;7.788;2022-10-16T16:51:12;17.30;10.90
11009;DHT22;5557;51.670;7.788;2022-10-16T16:53:45;17.30;14.30
11009;DHT22;5557;51.670;7.788;2022-10-16T16:56:13;17.20;15.50
11009;DHT22;5557;51.670;7.788;2022-10-16T16:58:41;17.10;15.50
11009;DHT22;5557;51.670;7.788;2022-10-16T17:01:09;17.00;15.80
11009;DHT22;5557;51.670;7.788;2022-10-16T17:03:47;17.00;14.90
11009;DHT22;5557;51.670;7.788;2022-10-16T17:06:18;17.00;17.40
11009;DHT22;5557;51.670;7.788;2022-10-16T17:08:47;17.00;18.70
11009;DHT22;5557;51.670;7.788;2022-10-16T17:11:17;16.90;19.20
11009;DHT22;5557;51.670;7.788;2022-10-16T17:13:44;16.90;21.20
11009;DHT22;5557;51.670;7.788;2022-10-16T17:16:15;16.80;24.00
11009;DHT22;5557;51.670;7.788;2022-10-16T17:18:42;16.70;25.90
11009;DHT22;5557;51.670;7.788;2022-10-16T17:21:10;16.70;27.10
11009;DHT22;5557;51.670;7.788;2022-10-16T17:23:37;16.60;29.10
11009;DHT22;5557;51.670;7.788;2022-10-16T17:26:10;16.60;28.80
11009;DHT22;5557;51.670;7.788;2022-10-16T17:28:38;16.60;28.70
11009;DHT22;5557;51.670;7.788;2022-10-16T17:31:12;16.50;28.10